createdAt,value
2022-07-27T00:01:10.577Z,94820.25
2022-07-27T00:03:38.601Z,94822.38
2022-07-27T00:06:05.833Z,94821.84
2022-07-27T00:08:32.929Z,94819.69
2022-07-27T00:11:00.033Z,94809.84
2022-07-27T00:13:27.099Z,94815.13
2022-07-27T00:15:54.477Z,94815.69
2022-07-27T00:18:22.022Z,94800.72
2022-07-27T00:20:49.318Z,94794.06
2022-07-27T00:23:16.368Z,94792.19
2022-07-27T00:25:43.533Z,94784.09
2022-07-27T00:28:10.705Z,94777.97
2022-07-27T00:30:37.667Z,94797.44
2022-07-27T00:33:06.063Z,94790.75
2022-07-27T00:35:33.381Z,94789.63
2022-07-27T00:38:03.270Z,94798.69
2022-07-27T00:40:30.542Z,94809.34
2022-07-27T00:42:57.737Z,94809.88
2022-07-27T00:45:24.830Z,94812.53
2022-07-27T00:47:55.055Z,94813.03
2022-07-27T00:50:22.416Z,94815.38
2022-07-27T00:52:49.901Z,94816.44
2022-07-27T00:55:17.144Z,94823.59
2022-07-27T00:57:58.278Z,94818.19
2022-07-27T01:00:28.678Z,94822.38
2022-07-27T01:02:57.393Z,94826.06
2022-07-27T01:05:35.870Z,94821.75
2022-07-27T01:10:32.497Z,94831.75
2022-07-27T01:13:00.046Z,94829.81
2022-07-27T01:15:27.476Z,94837.50
2022-07-27T01:17:54.489Z,94829.44
2022-07-27T01:20:21.853Z,94834.75
2022-07-27T01:22:48.904Z,94832.31
2022-07-27T01:25:16.197Z,94831.69
2022-07-27T01:27:43.219Z,94826.81
2022-07-27T01:30:26.882Z,94829.94
2022-07-27T01:33:05.891Z,94828.06
2022-07-27T01:35:33.780Z,94829.66
2022-07-27T01:38:01.150Z,94824.59
2022-07-27T01:40:30.038Z,94822.16
2022-07-27T01:42:57.651Z,94825.91
2022-07-27T01:45:24.968Z,94818.66
2022-07-27T01:47:51.867Z,94822.16
2022-07-27T01:50:19.010Z,94825.59
2022-07-27T01:52:46.038Z,94820.22
2022-07-27T01:55:13.208Z,94818.34
2022-07-27T01:57:40.421Z,94822.59
2022-07-27T02:00:12.116Z,94825.50
2022-07-27T02:02:42.051Z,94827.59
2022-07-27T02:05:13.419Z,94824.16
2022-07-27T02:07:41.918Z,94820.66
2022-07-27T02:10:10.335Z,94809.72
2022-07-27T02:12:38.275Z,94819.00
2022-07-27T02:15:16.255Z,94801.13
2022-07-27T02:17:44.920Z,94804.38
2022-07-27T02:20:14.857Z,94806.22
2022-07-27T02:22:42.504Z,94803.00
2022-07-27T02:25:12.599Z,94811.47
2022-07-27T02:27:42.065Z,94804.31
2022-07-27T02:30:11.693Z,94811.72
2022-07-27T02:32:40.952Z,94810.84
2022-07-27T02:35:19.587Z,94811.94
2022-07-27T02:37:49.118Z,94816.44
2022-07-27T02:40:17.872Z,94808.97
2022-07-27T02:42:47.617Z,94804.13
2022-07-27T02:45:17.805Z,94799.03
2022-07-27T02:47:45.542Z,94807.47
2022-07-27T02:50:13.334Z,94808.28
2022-07-27T02:52:40.512Z,94799.44
2022-07-27T02:55:08.620Z,94802.59
2022-07-27T02:57:37.880Z,94805.50
2022-07-27T03:00:12.842Z,94809.72
2022-07-27T03:02:40.805Z,94799.00
2022-07-27T03:05:09.801Z,94812.56
2022-07-27T03:07:37.744Z,94811.94
2022-07-27T03:10:05.548Z,94809.25
2022-07-27T03:12:32.556Z,94816.34
2022-07-27T03:14:59.718Z,94821.34
2022-07-27T03:17:27.046Z,94821.53
2022-07-27T03:19:54.129Z,94808.19
2022-07-27T03:22:21.591Z,94815.56
2022-07-27T03:24:48.703Z,94819.06
2022-07-27T03:27:16.481Z,94820.88
2022-07-27T03:29:43.545Z,94815.00
2022-07-27T03:32:10.740Z,94816.16
2022-07-27T03:34:37.712Z,94813.75
2022-07-27T03:37:04.684Z,94818.88
2022-07-27T03:39:31.667Z,94815.16
2022-07-27T03:41:58.782Z,94818.13
2022-07-27T03:44:26.032Z,94829.06
2022-07-27T03:46:53.044Z,94834.69
2022-07-27T03:49:20.219Z,94833.66
2022-07-27T03:51:47.350Z,94831.31
2022-07-27T03:54:14.421Z,94829.75
2022-07-27T03:56:41.629Z,94838.00
2022-07-27T03:59:09.200Z,94825.25
2022-07-27T04:01:36.426Z,94828.75
2022-07-27T04:04:03.643Z,94828.00
2022-07-27T04:06:30.754Z,94831.22
2022-07-27T04:09:08.059Z,94828.06
2022-07-27T04:11:37.687Z,94833.13
2022-07-27T04:14:13.007Z,94840.63
2022-07-27T04:16:41.635Z,94834.75
2022-07-27T04:19:09.425Z,94843.34
2022-07-27T04:21:36.765Z,94832.47
2022-07-27T04:24:05.418Z,94838.66
2022-07-27T04:26:32.924Z,94839.75
2022-07-27T04:29:00.018Z,94839.75
2022-07-27T04:31:26.971Z,94839.28
2022-07-27T04:33:54.224Z,94844.06
2022-07-27T04:36:21.359Z,94847.88
2022-07-27T04:38:48.385Z,94842.28
2022-07-27T04:41:15.400Z,94848.47
2022-07-27T04:43:42.787Z,94851.44
2022-07-27T04:46:14.995Z,94856.81
2022-07-27T04:48:49.341Z,94856.88
2022-07-27T04:51:18.177Z,94851.59
2022-07-27T04:53:52.799Z,94855.69
2022-07-27T04:56:26.506Z,94846.69
2022-07-27T04:58:54.437Z,94850.19
2022-07-27T05:01:23.030Z,94850.56
2022-07-27T05:03:50.301Z,94848.28
2022-07-27T05:06:17.401Z,94841.38
2022-07-27T05:08:44.708Z,94843.06
2022-07-27T05:11:11.847Z,94843.38
2022-07-27T05:13:42.030Z,94845.00
2022-07-27T05:16:10.869Z,94849.38
2022-07-27T05:18:39.779Z,94847.00
2022-07-27T05:21:08.245Z,94855.06
2022-07-27T05:23:36.015Z,94854.84
2022-07-27T05:26:03.291Z,94853.00
2022-07-27T05:28:31.032Z,94851.97
2022-07-27T05:30:58.519Z,94854.72
2022-07-27T05:33:25.556Z,94856.91
2022-07-27T05:35:52.758Z,94866.00
2022-07-27T05:38:20.148Z,94870.03
2022-07-27T05:40:47.776Z,94865.28
2022-07-27T05:43:14.975Z,94865.03
2022-07-27T05:45:42.327Z,94871.75
2022-07-27T05:48:09.642Z,94872.56
2022-07-27T05:50:37.218Z,94872.34
2022-07-27T05:53:04.328Z,94875.56
2022-07-27T05:55:31.378Z,94884.94
2022-07-27T05:57:58.451Z,94898.06
2022-07-27T06:00:27.119Z,94890.63
2022-07-27T06:02:54.682Z,94882.66
2022-07-27T06:05:21.893Z,94885.59
2022-07-27T06:08:08.782Z,94889.91
2022-07-27T06:10:39.560Z,94882.19
2022-07-27T06:13:09.351Z,94878.47
2022-07-27T06:15:38.242Z,94881.41
2022-07-27T06:18:07.186Z,94875.31
2022-07-27T06:20:34.224Z,94874.25
2022-07-27T06:23:07.814Z,94874.25
2022-07-27T06:25:36.430Z,94863.56
2022-07-27T06:28:07.083Z,94875.56
2022-07-27T06:30:34.519Z,94886.00
2022-07-27T06:33:06.662Z,94871.25
2022-07-27T06:35:34.492Z,94871.78
2022-07-27T06:38:03.282Z,94875.25
2022-07-27T06:40:32.027Z,94868.81
2022-07-27T06:43:00.246Z,94867.75
2022-07-27T06:45:27.669Z,94866.66
2022-07-27T06:47:54.809Z,94855.16
2022-07-27T06:50:22.781Z,94871.97
2022-07-27T06:52:49.946Z,94862.31
2022-07-27T06:55:17.641Z,94867.91
2022-07-27T06:57:46.359Z,94868.97
2022-07-27T07:00:14.431Z,94858.50
2022-07-27T07:02:58.750Z,94866.78
2022-07-27T07:05:26.266Z,94864.66
2022-07-27T07:07:54.085Z,94868.66
2022-07-27T07:10:23.789Z,94873.47
2022-07-27T07:12:55.615Z,94868.13
2022-07-27T07:15:26.817Z,94872.91
2022-07-27T07:17:54.617Z,94874.22
2022-07-27T07:20:22.683Z,94874.72
2022-07-27T07:22:50.181Z,94873.38
2022-07-27T07:25:17.908Z,94875.22
2022-07-27T07:27:44.912Z,94877.88
2022-07-27T07:30:13.102Z,94870.63
2022-07-27T07:32:40.747Z,94871.69
2022-07-27T07:35:08.597Z,94870.56
2022-07-27T07:37:36.114Z,94864.38
2022-07-27T07:40:40.100Z,94854.44
2022-07-27T07:43:01.166Z,94849.31
2022-07-27T07:45:31.589Z,94850.09
2022-07-27T07:47:59.529Z,94847.06
2022-07-27T07:50:27.232Z,94845.16
2022-07-27T07:52:55.126Z,94842.97
2022-07-27T07:55:24.706Z,94838.34
2022-07-27T07:57:51.938Z,94838.28
2022-07-27T08:00:20.878Z,94842.25
2022-07-27T08:02:54.425Z,94845.44
2022-07-27T08:05:22.684Z,94838.13
2022-07-27T08:07:51.550Z,94830.53
2022-07-27T08:10:21.276Z,94826.16
2022-07-27T08:12:54.595Z,94824.50
2022-07-27T08:15:35.111Z,94829.19
2022-07-27T08:18:06.593Z,94827.47
2022-07-27T08:20:34.662Z,94826.56
2022-07-27T08:23:02.878Z,94831.00
2022-07-27T08:25:29.956Z,94827.72
2022-07-27T08:27:57.762Z,94826.56
2022-07-27T08:30:25.109Z,94825.19
2022-07-27T08:32:59.785Z,94832.66
2022-07-27T08:35:28.868Z,94831.78
2022-07-27T08:37:55.901Z,94830.91
2022-07-27T08:40:41.814Z,94836.72
2022-07-27T08:43:12.009Z,94843.84
2022-07-27T08:45:41.970Z,94840.81
2022-07-27T08:48:14.332Z,94839.34
2022-07-27T08:50:42.722Z,94832.81
2022-07-27T08:53:13.417Z,94839.16
2022-07-27T08:55:44.783Z,94830.91
2022-07-27T08:58:13.932Z,94829.66
2022-07-27T09:00:48.312Z,94828.47
2022-07-27T09:03:20.114Z,94829.91
2022-07-27T09:05:55.707Z,94831.63
2022-07-27T09:08:30.189Z,94827.97
2022-07-27T09:10:59.546Z,94831.31
2022-07-27T09:13:32.709Z,94821.72
2022-07-27T09:16:22.971Z,94827.41
2022-07-27T09:19:06.082Z,94828.81
2022-07-27T09:21:35.641Z,94826.13
2022-07-27T09:24:23.491Z,94826.13
2022-07-27T09:27:05.850Z,94825.63
2022-07-27T09:29:36.821Z,94820.19
2022-07-27T09:32:17.686Z,94822.69
2022-07-27T09:34:45.779Z,94815.94
2022-07-27T09:37:25.194Z,94821.31
2022-07-27T09:40:11.563Z,94815.28
2022-07-27T09:43:08.900Z,94823.97
2022-07-27T09:45:35.787Z,94820.94
2022-07-27T09:48:17.710Z,94814.25
2022-07-27T09:51:02.562Z,94822.13
2022-07-27T09:53:43.854Z,94815.16
2022-07-27T09:56:16.137Z,94815.88
2022-07-27T09:58:53.806Z,94818.59
2022-07-27T10:01:25.336Z,94814.66
2022-07-27T10:04:00.469Z,94820.69
2022-07-27T10:06:29.166Z,94823.44
2022-07-27T10:08:58.324Z,94815.03
2022-07-27T10:11:26.819Z,94824.72
2022-07-27T10:13:56.765Z,94824.41
2022-07-27T10:16:28.880Z,94825.66
2022-07-27T10:19:14.689Z,94823.75
2022-07-27T10:21:47.448Z,94829.34
2022-07-27T10:24:36.900Z,94822.59
2022-07-27T10:27:21.345Z,94821.28
2022-07-27T10:29:50.370Z,94828.06
2022-07-27T10:32:31.193Z,94821.03
2022-07-27T10:35:01.233Z,94823.84
2022-07-27T10:37:34.314Z,94821.56
2022-07-27T10:40:26.856Z,94807.81
2022-07-27T10:43:29.606Z,94810.66
2022-07-27T10:46:01.838Z,94822.16
2022-07-27T10:48:48.290Z,94819.38
2022-07-27T10:51:17.682Z,94824.53
2022-07-27T10:56:48.024Z,94812.41
2022-07-27T10:59:15.882Z,94824.84
2022-07-27T11:02:03.447Z,94821.81
2022-07-27T11:04:32.345Z,94823.09
2022-07-27T11:10:07.615Z,94820.56
2022-07-27T11:12:36.746Z,94823.59
2022-07-27T11:15:04.908Z,94812.31
2022-07-27T11:17:54.165Z,94817.25
2022-07-27T11:20:24.140Z,94817.09
2022-07-27T11:25:39.096Z,94823.28
2022-07-27T11:28:09.900Z,94816.25
2022-07-27T11:30:37.370Z,94815.94
2022-07-27T11:33:05.225Z,94816.22
2022-07-27T11:35:32.471Z,94824.66
2022-07-27T11:38:06.631Z,94814.78
2022-07-27T11:40:57.357Z,94812.75
2022-07-27T11:43:38.975Z,94816.72
2022-07-27T11:46:19.716Z,94813.41
2022-07-27T11:49:10.176Z,94815.19
2022-07-27T11:51:49.442Z,94821.06
2022-07-27T11:54:27.832Z,94812.31
2022-07-27T11:57:02.470Z,94811.19
2022-07-27T11:59:42.625Z,94808.78
2022-07-27T12:02:18.001Z,94800.94
2022-07-27T12:04:48.690Z,94804.25
2022-07-27T12:07:18.814Z,94808.00
2022-07-27T12:09:55.981Z,94804.97
2022-07-27T12:12:28.456Z,94797.28
2022-07-27T12:14:58.765Z,94796.88
2022-07-27T12:17:32.884Z,94803.13
2022-07-27T12:20:11.500Z,94793.25
2022-07-27T12:22:44.347Z,94782.41
2022-07-27T12:25:29.689Z,94779.50
2022-07-27T12:28:07.353Z,94788.84
2022-07-27T12:30:47.233Z,94780.25
2022-07-27T12:33:37.693Z,94782.91
2022-07-27T12:36:08.862Z,94768.41
2022-07-27T12:38:50.340Z,94774.91
2022-07-27T12:41:35.562Z,94771.16
2022-07-27T12:44:18.228Z,94762.19
2022-07-27T12:47:27.626Z,94753.19
2022-07-27T12:50:07.885Z,94755.84
2022-07-27T12:52:38.849Z,94751.16
2022-07-27T12:55:10.628Z,94752.66
2022-07-27T12:57:55.352Z,94747.78
2022-07-27T13:00:33.646Z,94741.78
2022-07-27T13:03:03.174Z,94739.72
2022-07-27T13:05:31.621Z,94746.91
2022-07-27T13:07:59.777Z,94745.41
2022-07-27T13:10:27.739Z,94746.19
2022-07-27T13:12:55.143Z,94731.53
2022-07-27T13:15:22.373Z,94740.72
2022-07-27T13:17:50.480Z,94736.81
2022-07-27T13:20:18.006Z,94746.22
2022-07-27T13:22:47.314Z,94742.66
2022-07-27T13:25:17.289Z,94738.69
2022-07-27T13:27:47.641Z,94737.91
2022-07-27T13:30:17.113Z,94744.19
2022-07-27T13:32:48.748Z,94731.28
2022-07-27T13:35:17.224Z,94737.22
2022-07-27T13:37:45.466Z,94741.13
2022-07-27T13:40:13.706Z,94741.28
2022-07-27T13:42:40.951Z,94745.59
2022-07-27T13:45:10.999Z,94741.00
2022-07-27T13:47:40.753Z,94744.44
2022-07-27T13:50:17.206Z,94743.91
2022-07-27T13:52:47.219Z,94748.91
2022-07-27T13:55:16.403Z,94744.50
2022-07-27T13:57:45.396Z,94739.34
2022-07-27T14:00:13.562Z,94753.34
2022-07-27T14:02:42.001Z,94747.78
2022-07-27T14:05:14.130Z,94757.41
2022-07-27T14:07:43.687Z,94769.81
2022-07-27T14:10:31.492Z,94764.38
2022-07-27T14:13:08.204Z,94768.59
2022-07-27T14:15:50.446Z,94778.38
2022-07-27T14:18:23.761Z,94771.00
2022-07-27T14:20:51.289Z,94780.63
2022-07-27T14:23:18.717Z,94781.38
2022-07-27T14:25:47.030Z,94775.97
2022-07-27T14:28:14.273Z,94764.44
2022-07-27T14:30:41.366Z,94770.78
2022-07-27T14:33:08.560Z,94770.00
2022-07-27T14:35:40.240Z,94767.84
2022-07-27T14:38:09.486Z,94768.84
2022-07-27T14:40:38.041Z,94772.97
2022-07-27T14:43:06.525Z,94769.50
2022-07-27T14:45:44.780Z,94780.69
2022-07-27T14:48:23.089Z,94774.50
2022-07-27T14:50:55.859Z,94782.06
2022-07-27T14:53:23.184Z,94786.69
2022-07-27T14:55:50.425Z,94784.63
2022-07-27T14:58:17.637Z,94792.78
2022-07-27T15:00:45.111Z,94791.03
2022-07-27T15:03:14.676Z,94794.34
2022-07-27T15:05:50.533Z,94795.69
2022-07-27T15:08:20.258Z,94794.31
2022-07-27T15:10:49.875Z,94793.47
2022-07-27T15:13:18.080Z,94788.84
2022-07-27T15:15:48.367Z,94792.56
2022-07-27T15:18:18.835Z,94801.09
2022-07-27T15:20:49.365Z,94798.25
2022-07-27T15:23:17.406Z,94799.22
2022-07-27T15:25:44.933Z,94795.84
2022-07-27T15:28:12.343Z,94795.25
2022-07-27T15:30:39.912Z,94802.41
2022-07-27T15:33:07.443Z,94798.25
2022-07-27T15:35:34.743Z,94809.22
2022-07-27T15:38:02.057Z,94807.53
2022-07-27T15:40:38.230Z,94813.19
2022-07-27T15:43:12.337Z,94818.72
2022-07-27T15:45:48.502Z,94805.91
2022-07-27T15:48:19.443Z,94828.19
2022-07-27T15:50:50.861Z,94818.00
2022-07-27T15:53:20.874Z,94822.13
2022-07-27T15:55:49.285Z,94821.25
2022-07-27T15:58:19.512Z,94814.25
2022-07-27T16:00:53.295Z,94814.53
2022-07-27T16:03:25.510Z,94825.84
2022-07-27T16:05:53.524Z,94828.75
2022-07-27T16:08:22.827Z,94831.72
2022-07-27T16:10:50.091Z,94822.78
2022-07-27T16:13:17.404Z,94832.41
2022-07-27T16:16:03.972Z,94839.66
2022-07-27T16:18:35.329Z,94837.88
2022-07-27T16:21:05.567Z,94847.66
2022-07-27T16:23:32.945Z,94854.88
2022-07-27T16:26:04.490Z,94857.78
2022-07-27T16:28:42.369Z,94849.81
2022-07-27T16:31:13.952Z,94864.00
2022-07-27T16:33:44.517Z,94859.00
2022-07-27T16:36:12.410Z,94861.97
2022-07-27T16:38:49.556Z,94861.31
2022-07-27T16:41:22.359Z,94860.31
2022-07-27T16:43:50.104Z,94856.44
2022-07-27T16:46:17.983Z,94862.34
2022-07-27T16:48:45.467Z,94854.78
2022-07-27T16:51:14.360Z,94861.00
2022-07-27T16:53:44.563Z,94877.84
2022-07-27T16:56:12.307Z,94872.34
2022-07-27T16:58:39.631Z,94870.97
2022-07-27T17:01:08.269Z,94869.50
2022-07-27T17:03:35.880Z,94873.59
2022-07-27T17:06:06.387Z,94864.03
2022-07-27T17:08:36.188Z,94867.88
2022-07-27T17:11:06.076Z,94865.38
2022-07-27T17:13:34.649Z,94874.78
2022-07-27T17:16:04.379Z,94883.88
2022-07-27T17:18:38.945Z,94876.91
2022-07-27T17:21:07.748Z,94890.06
2022-07-27T17:23:38.329Z,94902.41
2022-07-27T17:26:08.773Z,94908.59
2022-07-27T17:28:39.377Z,94913.13
2022-07-27T17:31:12.285Z,94919.59
2022-07-27T17:33:41.361Z,94916.34
2022-07-27T17:36:14.598Z,94919.09
2022-07-27T17:38:47.757Z,94920.06
2022-07-27T17:41:23.534Z,94924.19
2022-07-27T17:43:52.038Z,94923.56
2022-07-27T17:46:19.721Z,94917.81
2022-07-27T17:48:47.172Z,94921.19
2022-07-27T17:51:14.702Z,94928.59
2022-07-27T17:53:41.776Z,94937.66
2022-07-27T17:56:11.086Z,94941.34
2022-07-27T17:58:38.932Z,94943.41
2022-07-27T18:01:07.099Z,94955.59
2022-07-27T18:03:35.217Z,94956.56
2022-07-27T18:06:02.676Z,94958.59
2022-07-27T18:08:30.080Z,94964.31
2022-07-27T18:10:57.347Z,94959.88
2022-07-27T18:13:39.222Z,94966.91
2022-07-27T18:16:11.984Z,94968.34
2022-07-27T18:18:42.773Z,94971.06
2022-07-27T18:21:11.445Z,94974.63
2022-07-27T18:23:39.568Z,94969.34
2022-07-27T18:26:07.844Z,94973.38
2022-07-27T18:28:39.543Z,94984.69
2022-07-27T18:31:08.136Z,94975.34
2022-07-27T18:33:37.019Z,94975.91
2022-07-27T18:36:06.507Z,94985.28
2022-07-27T18:38:33.632Z,94990.69
2022-07-27T18:41:00.677Z,94975.72
2022-07-27T18:43:27.836Z,94966.66
2022-07-27T18:45:55.285Z,94988.66
2022-07-27T18:48:22.605Z,94995.06
2022-07-27T18:50:49.836Z,95004.75
2022-07-27T18:53:17.252Z,95002.31
2022-07-27T18:55:45.014Z,95013.81
2022-07-27T18:58:12.155Z,95008.47
2022-07-27T19:00:39.104Z,95006.56
2022-07-27T19:03:06.386Z,95014.59
2022-07-27T19:05:41.355Z,95018.34
2022-07-27T19:08:13.508Z,95023.91
2022-07-27T19:10:45.279Z,95027.31
2022-07-27T19:13:13.572Z,95029.41
2022-07-27T19:15:41.490Z,95025.63
2022-07-27T19:18:09.030Z,95026.34
2022-07-27T19:20:37.839Z,95027.06
2022-07-27T19:23:08.081Z,95029.88
2022-07-27T19:25:35.606Z,95022.34
2022-07-27T19:28:04.308Z,95033.19
2022-07-27T19:30:31.680Z,95042.19
2022-07-27T19:32:59.530Z,95040.69
2022-07-27T19:35:27.591Z,95050.53
2022-07-27T19:37:54.930Z,95050.44
2022-07-27T19:43:10.561Z,95067.31
2022-07-27T19:45:41.184Z,95068.31
2022-07-27T19:48:11.858Z,95070.91
2022-07-27T19:50:39.663Z,95058.84
2022-07-27T19:53:06.888Z,95067.34
2022-07-27T19:55:34.723Z,95066.19
2022-07-27T19:58:01.933Z,95065.88
2022-07-27T20:00:29.155Z,95074.34
2022-07-27T20:02:57.661Z,95071.63
2022-07-27T20:05:24.846Z,95075.84
2022-07-27T20:07:52.935Z,95079.25
2022-07-27T20:10:21.820Z,95077.84
2022-07-27T20:12:48.784Z,95082.28
2022-07-27T20:15:16.085Z,95089.97
2022-07-27T20:17:43.958Z,95087.25
2022-07-27T20:20:12.793Z,95100.50
2022-07-27T20:22:40.905Z,95095.53
2022-07-27T20:25:11.799Z,95100.31
2022-07-27T20:27:39.417Z,95101.03
2022-07-27T20:30:09.011Z,95096.44
2022-07-27T20:32:36.529Z,95099.34
2022-07-27T20:35:04.983Z,95100.91
2022-07-27T20:37:32.640Z,95103.81
2022-07-27T20:39:59.685Z,95103.50
2022-07-27T20:42:27.500Z,95096.28
2022-07-27T20:44:55.138Z,95095.72
2022-07-27T20:47:22.586Z,95100.81
2022-07-27T20:49:49.731Z,95090.66
2022-07-27T20:52:17.065Z,95100.50
2022-07-27T20:54:44.378Z,95096.94
2022-07-27T20:57:11.693Z,95110.81
2022-07-27T20:59:39.135Z,95116.38
2022-07-27T21:02:07.668Z,95116.03
2022-07-27T21:04:35.504Z,95113.38
2022-07-27T21:07:02.530Z,95117.34
2022-07-27T21:09:31.489Z,95111.47
2022-07-27T21:11:58.844Z,95107.66
2022-07-27T21:14:26.190Z,95104.94
2022-07-27T21:16:53.439Z,95112.13
2022-07-27T21:19:22.395Z,95108.88
2022-07-27T21:21:49.693Z,95110.44
2022-07-27T21:24:17.557Z,95111.16
2022-07-27T21:26:50.807Z,95120.41
2022-07-27T21:29:19.717Z,95113.94
2022-07-27T21:31:49.480Z,95113.16
2022-07-27T21:34:20.435Z,95113.63
2022-07-27T21:36:48.496Z,95120.22
2022-07-27T21:39:16.212Z,95116.19
2022-07-27T21:41:43.494Z,95111.34
2022-07-27T21:44:11.418Z,95113.78
2022-07-27T21:46:38.721Z,95119.31
2022-07-27T21:49:06.210Z,95128.38
2022-07-27T21:51:33.556Z,95122.47
2022-07-27T21:54:00.975Z,95113.56
2022-07-27T21:56:28.743Z,95120.75
2022-07-27T21:58:55.844Z,95121.78
2022-07-27T22:01:23.325Z,95131.84
2022-07-27T22:03:50.786Z,95133.94
2022-07-27T22:06:18.313Z,95136.28
2022-07-27T22:08:46.216Z,95132.00
2022-07-27T22:11:13.832Z,95141.59
2022-07-27T22:13:41.170Z,95132.44
2022-07-27T22:16:09.087Z,95132.69
2022-07-27T22:18:36.327Z,95131.31
2022-07-27T22:21:03.391Z,95123.03
2022-07-27T22:23:30.499Z,95131.25
2022-07-27T22:25:58.040Z,95130.31
2022-07-27T22:28:26.150Z,95134.72
2022-07-27T22:31:16.506Z,95126.91
2022-07-27T22:33:44.422Z,95112.38
2022-07-27T22:36:12.403Z,95123.50
2022-07-27T22:38:39.705Z,95117.50
2022-07-27T22:41:08.041Z,95115.78
2022-07-27T22:43:35.779Z,95121.22
2022-07-27T22:46:04.888Z,95112.56
2022-07-27T22:48:32.764Z,95113.50
2022-07-27T22:50:59.962Z,95114.19
2022-07-27T22:53:27.086Z,95117.75
2022-07-27T22:55:54.280Z,95117.19
2022-07-27T22:58:21.925Z,95113.63
2022-07-27T23:00:49.481Z,95113.63
2022-07-27T23:03:16.806Z,95122.03
2022-07-27T23:05:43.919Z,95110.63
2022-07-27T23:08:11.249Z,95121.72
2022-07-27T23:10:47.584Z,95126.78
2022-07-27T23:13:19.894Z,95129.44
2022-07-27T23:15:47.542Z,95137.41
2022-07-27T23:18:16.710Z,95126.19
2022-07-27T23:20:44.786Z,95124.56
2022-07-27T23:23:16.624Z,95127.91
2022-07-27T23:25:49.892Z,95128.41
2022-07-27T23:28:17.363Z,95120.09
2022-07-27T23:30:44.701Z,95126.91
2022-07-27T23:33:12.296Z,95119.16
2022-07-27T23:35:39.510Z,95124.94
2022-07-27T23:38:06.732Z,95124.69
2022-07-27T23:40:33.879Z,95125.19
2022-07-27T23:43:00.971Z,95126.41
2022-07-27T23:45:28.415Z,95121.13
2022-07-27T23:47:55.728Z,95125.03
2022-07-27T23:50:23.157Z,95119.38
2022-07-27T23:52:50.587Z,95120.41
2022-07-27T23:55:17.888Z,95114.78
2022-07-27T23:57:44.936Z,95118.47
